Time;durP1;ratioP1;P1;durP2;ratioP2;P2;SDS_P1;SDS_P2;PMS_P1;PMS_P2;Temp;Humidity;BMP_temperature;BMP_pressure;BME280_temperature;BME280_humidity;BME280_pressure;Samples;Min_cycle;Max_cycle;Signal;HPM_P1;HPM_P2
2023/09/17 00:00:31;;;;;;;13.25;11.18;;;18.20;80.20;;;17.40;100.00;95898.84;6015356;23;20010;-70
2023/09/17 00:02:56;;;;;;;11.93;10.73;;;18.20;80.60;;;17.38;100.00;95907.06;6014665;23;20417;-76
2023/09/17 00:05:22;;;;;;;12.40;10.32;;;18.20;80.50;;;17.36;100.00;95897.72;6039004;23;20803;-71
2023/09/17 00:07:48;;;;;;;12.88;11.65;;;18.20;80.50;;;17.33;100.00;95900.84;6038907;23;20070;-73
2023/09/17 00:10:14;;;;;;;18.85;16.92;;;18.20;80.60;;;17.30;100.00;95902.13;6013551;23;20451;-69
2023/09/17 00:12:40;;;;;;;16.73;15.02;;;18.10;80.70;;;17.28;100.00;95901.56;6061111;23;20457;-68
2023/09/17 00:15:07;;;;;;;14.07;12.68;;;18.10;80.60;;;17.27;100.00;95896.47;6012154;23;20113;-69
2023/09/17 00:17:32;;;;;;;15.38;13.85;;;18.10;81.20;;;17.28;100.00;95904.22;6013416;23;20028;-69
2023/09/17 00:19:58;;;;;;;14.63;13.02;;;18.20;81.30;;;17.28;100.00;95898.09;6013032;23;20365;-67
2023/09/17 00:22:24;;;;;;;14.60;13.10;;;18.20;81.20;;;17.27;100.00;95899.16;5989360;23;20010;-67
2023/09/17 00:24:50;;;;;;;14.45;12.95;;;18.20;81.40;;;17.27;100.00;95902.59;6036911;23;20675;-68
2023/09/17 00:27:16;;;;;;;15.80;13.40;;;18.20;81.80;;;17.27;100.00;95904.47;6036587;23;20027;-68
2023/09/17 00:29:41;;;;;;;15.38;13.73;;;18.20;82.10;;;17.29;100.00;95905.03;6034184;23;20061;-67
2023/09/17 00:32:07;;;;;;;13.55;12.18;;;18.20;82.00;;;17.31;100.00;95908.25;6059611;23;20034;-67
2023/09/17 00:34:33;;;;;;;13.70;12.32;;;18.30;81.80;;;17.33;100.00;95906.16;6036902;23;20466;-68
2023/09/17 00:37:00;;;;;;;13.60;12.20;;;18.30;81.40;;;17.33;100.00;95916.81;6036565;23;20010;-67
2023/09/17 00:39:27;;;;;;;12.93;11.70;;;18.20;81.00;;;17.31;100.00;95914.38;6060297;23;20028;-68
2023/09/17 00:41:53;;;;;;;12.88;11.50;;;18.20;80.90;;;17.29;100.00;95902.38;6062057;23;20652;-68
2023/09/17 00:44:19;;;;;;;13.35;11.98;;;18.30;80.80;;;17.28;100.00;95906.06;6060549;23;20018;-68
2023/09/17 00:46:45;;;;;;;13.18;11.85;;;18.20;80.80;;;17.25;100.00;95895.91;6012864;23;20045;-67
2023/09/17 00:49:14;;;;;;;12.98;11.68;;;18.20;80.80;;;17.24;100.00;95896.97;6013118;23;20057;-67
2023/09/17 00:51:43;;;;;;;13.00;11.52;;;18.20;80.70;;;17.21;100.00;95898.25;6013545;23;20499;-68
2023/09/17 00:54:09;;;;;;;12.23;11.02;;;18.10;80.80;;;17.16;100.00;95895.44;6011878;23;20435;-67
2023/09/17 00:56:36;;;;;;;13.25;11.55;;;18.10;81.20;;;17.11;100.00;95888.19;5989258;23;20025;-67
2023/09/17 00:59:03;;;;;;;12.95;11.68;;;18.10;81.40;;;17.08;100.00;95893.16;6036271;23;20524;-65
2023/09/17 01:01:29;;;;;;;12.70;11.45;;;18.00;81.70;;;17.10;100.00;95885.78;6014473;23;20018;-67
2023/09/17 01:03:55;;;;;;;12.48;11.25;;;18.00;81.80;;;17.08;100.00;95888.66;6038512;23;20614;-67
2023/09/17 01:06:21;;;;;;;14.38;11.85;;;18.00;81.80;;;17.07;100.00;95884.41;6035805;23;20416;-68
2023/09/17 01:08:46;;;;;;;12.95;11.55;;;18.00;82.20;;;17.04;100.00;95890.19;6039129;23;20160;-67
2023/09/17 01:11:12;;;;;;;15.27;11.65;;;17.90;82.10;;;17.05;100.00;95899.78;6014563;23;20149;-67
2023/09/17 01:13:49;;;;;;;13.35;11.95;;;18.00;81.90;;;17.05;100.00;95899.78;6038129;23;20494;-67
2023/09/17 01:16:14;;;;;;;13.68;12.32;;;18.00;81.50;;;17.06;100.00;95906.69;6039900;23;20518;-67
2023/09/17 01:18:42;;;;;;;12.25;11.05;;;18.00;81.50;;;17.03;100.00;95901.03;6038866;23;20010;-67
2023/09/17 01:21:36;;;;;;;12.77;11.48;;;18.00;81.40;;;16.99;100.00;95900.72;6062013;23;20028;-67
2023/09/17 01:24:26;;;;;;;13.45;11.93;;;17.90;81.50;;;16.96;100.00;95898.50;6051443;23;20029;-67
2023/09/17 01:27:02;;;;;;;;;;;17.90;81.50;;;16.94;100.00;95907.75;6040910;23;20026;-67
2023/09/17 01:29:37;;;;;;;12.95;11.57;;;17.90;81.30;;;16.91;100.00;95903.72;6036582;23;20193;-68
2023/09/17 01:32:04;;;;;;;11.75;10.63;;;17.80;81.20;;;16.91;100.00;95901.06;6015497;23;20393;-68
2023/09/17 01:34:34;;;;;;;12.73;11.43;;;17.80;81.20;;;16.89;100.00;95903.13;6038704;23;20021;-67
2023/09/17 01:37:01;;;;;;;12.57;11.27;;;17.80;81.00;;;16.88;100.00;95901.53;6016447;23;20010;-67
2023/09/17 01:39:29;;;;;;;13.02;11.27;;;17.80;81.20;;;16.86;100.00;95905.44;6038588;23;20025;-68
2023/09/17 01:41:55;;;;;;;12.52;11.23;;;17.80;81.40;;;16.83;100.00;95901.41;6015164;23;20407;-68
2023/09/17 01:44:24;;;;;;;13.02;11.75;;;17.70;81.60;;;16.82;100.00;95910.44;6014802;23;20520;-68
2023/09/17 01:46:49;;;;;;;12.15;10.90;;;17.70;81.60;;;16.82;100.00;95907.78;6016089;23;20500;-67
2023/09/17 01:49:16;;;;;;;12.63;10.90;;;17.70;81.70;;;16.80;100.00;95905.34;6037777;23;20480;-67
2023/09/17 01:51:41;;;;;;;11.32;10.23;;;17.70;81.30;;;16.79;100.00;95911.72;6038527;23;20453;-68
2023/09/17 01:54:07;;;;;;;12.77;10.57;;;17.70;81.10;;;16.77;100.00;95907.66;6013772;23;20446;-68
2023/09/17 01:56:37;;;;;;;11.40;9.65;;;17.70;81.10;;;16.74;100.00;95910.75;6038102;23;20057;-67
2023/09/17 01:59:04;;;;;;;11.27;10.13;;;17.60;81.00;;;16.73;100.00;95903.84;6038403;23;20468;-67
2023/09/17 02:01:30;;;;;;;11.95;10.73;;;17.60;81.00;;;16.68;100.00;95903.72;6061927;23;20014;-67
2023/09/17 02:03:57;;;;;;;15.95;11.82;;;17.60;81.50;;;16.62;100.00;95894.81;6014638;23;20464;-67
2023/09/17 02:06:23;;;;;;;12.88;11.63;;;17.60;81.80;;;16.61;100.00;95897.69;6036744;23;20032;-68
2023/09/17 02:08:49;;;;;;;14.15;12.15;;;17.60;81.70;;;16.59;100.00;95900.59;6038831;23;20018;-67
2023/09/17 02:11:15;;;;;;;12.77;11.15;;;17.60;81.80;;;16.58;100.00;95900.81;6013564;23;20101;-68
2023/09/17 02:13:40;;;;;;;13.88;12.02;;;17.50;81.80;;;16.57;100.00;95901.88;6037732;23;20014;-67
2023/09/17 02:16:07;;;;;;;13.18;11.77;;;17.50;82.00;;;16.57;100.00;95899.22;6038266;23;20057;-67
2023/09/17 02:18:33;;;;;;;13.23;11.98;;;17.50;81.80;;;16.54;100.00;95898.63;6037495;23;20582;-67
2023/09/17 02:20:58;;;;;;;13.57;11.57;;;17.50;81.80;;;16.53;100.00;95897.03;6037837;23;20018;-68
2023/09/17 02:23:25;;;;;;;12.60;11.25;;;17.50;81.80;;;16.51;100.00;95904.38;6014090;23;20484;-67
2023/09/17 02:25:51;;;;;;;13.20;11.55;;;17.50;82.00;;;16.48;100.00;95899.53;5991052;23;20110;-69
2023/09/17 02:28:16;;;;;;;13.18;10.90;;;17.50;82.20;;;16.46;100.00;95896.31;6063141;23;20081;-68
2023/09/17 02:30:42;;;;;;;14.25;11.55;;;17.50;82.00;;;16.46;100.00;95896.31;6012705;23;20468;-67
2023/09/17 02:33:10;;;;;;;12.70;10.88;;;17.50;81.90;;;16.45;100.00;95897.34;6061563;23;20261;-67
2023/09/17 02:35:38;;;;;;;12.80;11.60;;;17.50;81.90;;;16.48;100.00;95904.03;6038967;23;20025;-68
2023/09/17 02:38:04;;;;;;;13.50;11.07;;;17.50;81.70;;;16.45;100.00;95900.00;6034469;23;20026;-67
2023/09/17 02:40:30;;;;;;;12.10;10.98;;;17.40;81.70;;;16.43;100.00;95918.00;6064381;23;20014;-67
2023/09/17 02:42:56;;;;;;;12.68;11.40;;;17.40;81.50;;;16.40;100.00;95913.16;6088316;23;20091;-68
2023/09/17 02:45:21;;;;;;;12.50;11.20;;;17.40;81.50;;;16.37;100.00;95905.66;6088099;23;20045;-69
2023/09/17 02:47:48;;;;;;;12.07;10.88;;;17.40;81.60;;;16.36;100.00;95906.69;6064268;23;20025;-68
2023/09/17 02:50:14;;;;;;;13.10;11.57;;;17.30;81.50;;;16.36;100.00;95917.31;6063754;23;20036;-68
2023/09/17 02:52:39;;;;;;;12.48;11.15;;;17.30;81.30;;;16.32;100.00;95921.47;6088094;23;20022;-68
2023/09/17 02:55:08;;;;;;;11.95;10.75;;;17.30;80.90;;;16.29;100.00;95919.25;6040904;23;20081;-68
2023/09/17 02:57:33;;;;;;;12.60;11.30;;;17.30;80.90;;;16.28;100.00;95924.78;6088114;23;20451;-68
2023/09/17 02:59:59;;;;;;;11.88;10.18;;;17.20;81.10;;;16.25;100.00;95931.38;6064121;23;20019;-69
2023/09/17 03:02:25;;;;;;;11.05;9.93;;;17.20;81.00;;;16.21;100.00;95935.53;6087699;23;20018;-69
2023/09/17 03:04:56;;;;;;;12.30;9.43;;;17.20;80.90;;;16.14;100.00;95935.63;6040227;23;20026;-69
2023/09/17 03:07:22;;;;;;;9.50;8.50;;;17.10;80.80;;;16.10;100.00;95939.78;6087773;23;20385;-69
2023/09/17 03:09:47;;;;;;;10.05;8.90;;;17.10;80.90;;;16.07;100.00;95939.41;6089167;23;20013;-68
2023/09/17 03:12:13;;;;;;;10.35;9.00;;;17.00;81.10;;;16.04;100.00;95947.81;6063808;23;20458;-71
2023/09/17 03:14:39;;;;;;;10.27;9.27;;;17.00;81.50;;;16.00;100.00;95944.81;6089537;23;20073;-69
2023/09/17 03:17:05;;;;;;;11.45;10.23;;;17.00;81.50;;;16.00;100.00;95938.69;6040402;23;20468;-69
2023/09/17 03:19:31;;;;;;;11.60;10.13;;;17.00;81.60;;;16.00;100.00;95941.34;6064448;23;20017;-69
2023/09/17 03:21:57;;;;;;;14.07;11.38;;;17.00;81.70;;;16.00;100.00;95938.69;6064631;23;20007;-68
2023/09/17 03:24:23;;;;;;;12.82;11.23;;;17.10;81.50;;;15.99;100.00;95942.38;6089656;23;20042;-71
2023/09/17 03:26:49;;;;;;;11.82;10.63;;;17.00;81.50;;;15.98;100.00;95936.28;6064015;23;20028;-68
2023/09/17 03:29:15;;;;;;;10.15;9.15;;;17.00;81.50;;;15.97;100.00;95932.00;6063230;23;20022;-68
2023/09/17 03:31:41;;;;;;;13.20;9.13;;;17.00;81.30;;;15.95;100.00;95942.03;6065884;23;20030;-68
2023/09/17 03:34:07;;;;;;;10.70;9.50;;;16.90;81.40;;;15.90;100.00;95934.75;6042908;23;20021;-68
2023/09/17 03:36:37;;;;;;;10.10;9.10;;;16.90;81.30;;;15.89;100.00;95943.75;6065594;23;20093;-69
2023/09/17 03:39:05;;;;;;;11.10;9.38;;;16.90;81.20;;;15.87;100.00;95940.53;6090573;23;20363;-69
2023/09/17 03:41:32;;;;;;;12.32;9.35;;;16.80;81.20;;;15.86;100.00;95949.50;6090014;23;20030;-68
2023/09/17 03:43:58;;;;;;;11.23;8.95;;;16.80;81.10;;;15.83;100.00;95965.84;6042563;23;20021;-69
2023/09/17 03:46:24;;;;;;;9.82;8.68;;;16.70;81.00;;;15.79;100.00;95961.22;6091049;23;20400;-69
2023/09/17 03:48:49;;;;;;;10.18;8.82;;;16.80;81.20;;;15.78;100.00;95959.63;6090831;23;20010;-68
2023/09/17 03:51:15;;;;;;;9.35;8.45;;;16.80;81.30;;;15.76;100.00;95957.19;6065140;23;20094;-69
2023/09/17 03:53:41;;;;;;;10.75;9.65;;;16.70;81.40;;;15.73;100.00;95955.00;6042261;23;20046;-68
2023/09/17 03:56:07;;;;;;;11.82;9.82;;;16.60;81.90;;;15.72;100.00;95952.56;6042031;23;20042;-69
2023/09/17 03:58:32;;;;;;;10.88;9.85;;;16.70;81.70;;;15.72;100.00;95952.56;6041873;23;20021;-68
2023/09/17 04:00:58;;;;;;;11.45;10.27;;;16.70;81.90;;;15.69;100.00;95959.13;6091949;23;20037;-68
2023/09/17 04:03:25;;;;;;;12.70;10.60;;;16.60;81.90;;;15.67;100.00;95955.88;6089329;23;20019;-69
2023/09/17 04:05:51;;;;;;;12.23;10.95;;;16.60;82.20;;;15.66;100.00;95954.28;6065900;23;20058;-69
2023/09/17 04:08:17;;;;;;;12.20;10.55;;;16.60;82.10;;;15.64;100.00;95951.03;6089521;23;20014;-70
2023/09/17 04:10:43;;;;;;;13.48;11.20;;;16.70;82.10;;;15.63;100.00;95952.06;6091383;23;20038;-72
2023/09/17 04:13:09;;;;;;;12.55;11.25;;;16.60;82.10;;;15.60;100.00;95945.34;6089783;23;20026;-70
2023/09/17 04:15:36;;;;;;;14.68;10.93;;;16.60;82.10;;;15.59;100.00;95950.88;6091103;23;20042;-69
2023/09/17 04:18:04;;;;;;;11.75;10.52;;;16.60;82.30;;;15.60;100.00;95952.50;6089325;23;20011;-69
2023/09/17 04:20:30;;;;;;;11.98;10.77;;;16.70;82.20;;;15.61;100.00;95951.47;6065882;23;20742;-71
2023/09/17 04:22:55;;;;;;;13.30;11.80;;;16.70;82.20;;;15.61;100.00;95952.31;6065791;23;20029;-70
2023/09/17 04:25:21;;;;;;;15.20;12.60;;;16.60;82.20;;;15.59;100.00;95949.03;6091024;23;20082;-68
2023/09/17 04:27:47;;;;;;;13.00;11.70;;;16.60;82.30;;;15.61;100.00;95956.75;6090547;23;20011;-69
2023/09/17 04:30:13;;;;;;;13.18;11.88;;;16.70;82.40;;;15.59;100.00;95951.69;6039702;23;20025;-70
2023/09/17 04:32:41;;;;;;;13.15;11.95;;;16.60;82.70;;;15.59;100.00;95956.19;6065721;23;20029;-69
2023/09/17 04:35:17;;;;;;;12.85;11.25;;;16.70;82.70;;;15.60;100.00;95960.44;6089778;23;20025;-68
2023/09/17 04:37:43;;;;;;;12.10;10.90;;;16.70;82.60;;;15.57;100.00;95961.69;6066276;23;20412;-72
2023/09/17 04:40:09;;;;;;;14.23;10.80;;;16.70;82.40;;;15.61;100.00;95962.06;6042051;23;20010;-69
2023/09/17 04:42:40;;;;;;;12.40;11.15;;;16.60;82.40;;;15.59;100.00;95956.19;6065123;23;20014;-68
2023/09/17 04:45:06;;;;;;;11.25;10.15;;;16.70;82.30;;;15.59;100.00;95956.19;6042737;23;20221;-70
2023/09/17 04:47:36;;;;;;;12.27;10.60;;;16.70;82.40;;;15.57;100.00;95952.91;6089318;23;20022;-69
2023/09/17 04:50:03;;;;;;;12.90;10.87;;;16.60;82.30;;;15.55;100.00;95963.75;6065647;23;20034;-68
2023/09/17 04:52:29;;;;;;;10.20;8.93;;;16.60;82.20;;;15.50;100.00;95960.97;6041450;23;20049;-69
2023/09/17 04:54:55;;;;;;;9.43;8.23;;;16.50;82.20;;;15.49;100.00;95969.94;6066575;23;20061;-69
2023/09/17 04:57:20;;;;;;;7.97;7.18;;;16.60;82.00;;;15.48;100.00;95967.53;6090924;23;20480;-69
2023/09/17 04:59:46;;;;;;;10.65;9.55;;;16.60;82.10;;;15.47;100.00;95966.72;6065730;23;20333;-69
2023/09/17 05:02:14;;;;;;;11.27;10.15;;;16.60;82.10;;;15.45;100.00;95962.66;6041517;23;20023;-70
2023/09/17 05:04:40;;;;;;;11.55;10.35;;;16.60;82.40;;;15.39;100.00;95963.53;6018370;23;20019;-73
2023/09/17 05:07:06;;;;;;;12.70;10.20;;;16.50;82.80;;;15.35;100.00;95957.06;6065027;23;20037;-72
2023/09/17 05:09:32;;;;;;;11.18;10.07;;;16.50;83.00;;;15.34;100.00;95964.19;6090498;23;20400;-72
2023/09/17 05:11:58;;;;;;;10.40;9.40;;;16.50;83.10;;;15.36;100.00;95969.28;6064925;23;20026;-73
2023/09/17 05:14:24;;;;;;;20.67;18.48;;;16.50;83.30;;;15.39;100.00;95976.78;6064614;23;20024;-72
2023/09/17 05:16:49;;;;;;;20.00;15.65;;;16.50;83.30;;;15.41;100.00;95972.09;6041417;23;20022;-76
2023/09/17 05:19:15;;;;;;;13.63;12.20;;;16.60;83.10;;;15.45;100.00;95979.38;6041461;23;20006;-72
2023/09/17 05:21:41;;;;;;;9.77;8.85;;;16.60;83.00;;;15.47;100.00;95976.50;6089498;23;20014;-75
2023/09/17 05:24:07;;;;;;;9.48;8.48;;;16.70;82.70;;;15.49;100.00;95975.25;6064794;23;20054;-72
2023/09/17 05:26:33;;;;;;;9.90;9.00;;;16.70;82.70;;;15.51;100.00;95982.97;6064315;23;20022;-71
2023/09/17 05:28:58;;;;;;;9.77;8.10;;;16.80;82.70;;;15.53;100.00;95987.03;6090253;23;20033;-72
2023/09/17 05:31:24;;;;;;;9.00;8.10;;;16.80;82.20;;;15.56;100.00;95991.06;6038142;23;20018;-72
2023/09/17 05:33:50;;;;;;;8.50;7.70;;;16.70;82.80;;;15.58;100.00;95994.31;6065509;23;20013;-69
2023/09/17 05:36:16;;;;;;;9.75;8.52;;;16.80;82.90;;;15.60;100.00;95997.56;6089913;23;20010;-72
2023/09/17 05:38:42;;;;;;;9.07;7.70;;;16.90;82.90;;;15.62;100.00;95995.53;6088022;23;20326;-68
2023/09/17 05:41:10;;;;;;;9.75;8.60;;;16.90;82.80;;;15.66;100.00;95996.69;6064654;23;20018;-69
2023/09/17 05:43:36;;;;;;;10.15;8.40;;;17.00;82.70;;;15.71;100.00;95996.84;6088048;23;20018;-70
2023/09/17 05:46:01;;;;;;;9.23;8.35;;;17.10;82.60;;;15.76;100.00;95994.31;6088908;23;20006;-68
2023/09/17 05:48:28;;;;;;;9.32;8.43;;;17.10;82.40;;;15.82;100.00;95996.06;6064285;23;20369;-71
2023/09/17 05:50:53;;;;;;;8.20;7.50;;;17.30;82.30;;;15.87;100.00;95998.88;6064683;23;20022;-71
2023/09/17 05:53:19;;;;;;;10.60;9.60;;;17.30;82.30;;;15.96;100.00;96002.00;6089243;23;20054;-71
2023/09/17 05:55:45;;;;;;;32.80;29.08;;;17.40;82.40;;;16.06;100.00;96001.47;6064660;23;20090;-69
2023/09/17 05:58:11;;;;;;;76.60;59.97;;;17.60;82.40;;;16.16;100.00;96007.06;6040840;23;20073;-71
2023/09/17 06:00:37;;;;;;;60.33;47.90;;;17.70;82.30;;;16.27;100.00;96003.59;6064082;23;20555;-70
2023/09/17 06:03:03;;;;;;;31.33;26.80;;;17.80;82.20;;;16.38;100.00;95997.53;6089792;23;20045;-70
2023/09/17 06:05:28;;;;;;;12.57;11.27;;;18.10;82.10;;;16.51;100.00;95994.66;6087419;23;20038;-71
2023/09/17 06:07:54;;;;;;;12.70;10.45;;;18.10;82.10;;;16.64;100.00;95990.19;6088358;23;20025;-71
2023/09/17 06:10:21;;;;;;;10.30;9.20;;;18.40;81.90;;;16.75;100.00;95992.91;6064004;23;20778;-68
2023/09/17 06:12:47;;;;;;;11.70;9.90;;;18.50;82.10;;;16.87;100.00;95986.78;6017257;23;20011;-72
2023/09/17 06:15:13;;;;;;;11.35;9.77;;;18.50;82.30;;;16.94;100.00;95998.06;6040706;23;20018;-72
2023/09/17 06:17:39;;;;;;;10.10;9.07;;;18.50;82.40;;;17.03;100.00;96002.84;6087949;23;20019;-72
2023/09/17 06:20:06;;;;;;;10.88;9.57;;;18.60;82.20;;;17.12;100.00;96001.44;6088312;23;20069;-72
2023/09/17 06:22:34;;;;;;;13.85;11.77;;;18.60;82.10;;;17.19;100.00;96000.50;6089796;23;20014;-72
2023/09/17 06:25:00;;;;;;;10.98;9.65;;;18.70;82.10;;;17.25;100.00;96010.22;6089138;23;20006;-75
2023/09/17 06:27:25;;;;;;;11.15;9.73;;;18.70;82.00;;;17.29;100.00;96011.38;6087606;23;20129;-75
2023/09/17 06:29:51;;;;;;;10.95;9.73;;;18.70;82.00;;;17.35;100.00;96021.06;6038485;23;20022;-71
2023/09/17 06:32:17;;;;;;;11.75;10.55;;;18.80;81.90;;;17.37;100.00;96024.28;6087587;23;20037;-69
2023/09/17 06:34:43;;;;;;;11.10;9.98;;;18.70;81.80;;;17.38;100.00;96037.34;6016457;23;20058;-74
2023/09/17 06:37:09;;;;;;;10.20;9.30;;;18.70;82.20;;;17.37;100.00;96046.38;6064387;23;20349;-71
2023/09/17 06:39:35;;;;;;;9.50;8.60;;;18.60;82.00;;;17.34;100.00;96046.03;6087714;23;20029;-72
2023/09/17 06:42:01;;;;;;;9.85;8.95;;;18.60;82.10;;;17.36;100.00;96044.75;6088034;23;20034;-73
2023/09/17 06:44:27;;;;;;;9.20;8.30;;;18.80;81.70;;;17.37;100.00;96034.94;6087586;23;20388;-72
2023/09/17 06:46:52;;;;;;;9.13;8.27;;;18.80;81.50;;;17.41;100.00;96030.75;6063966;23;20049;-77
2023/09/17 06:49:18;;;;;;;8.18;7.35;;;18.80;80.80;;;17.46;100.00;96033.53;6064110;23;20077;-67
2023/09/17 06:51:44;;;;;;;7.75;6.50;;;19.00;80.30;;;17.49;100.00;96027.75;6040321;23;20053;-69
2023/09/17 06:54:10;;;;;;;7.95;7.03;;;19.00;79.60;;;17.60;100.00;96028.75;6021863;23;20022;-67
2023/09/17 06:56:36;;;;;;;8.48;7.22;;;19.30;79.40;;;17.72;100.00;96019.75;6065314;23;20011;-68
2023/09/17 06:59:02;;;;;;;7.70;6.90;;;19.50;79.30;;;17.84;100.00;96029.53;6089134;23;20018;-67
2023/09/17 07:01:28;;;;;;;10.93;9.82;;;19.60;78.60;;;17.96;100.00;96033.00;6088212;23;20018;-66
2023/09/17 07:03:54;;;;;;;22.08;19.23;;;19.80;78.00;;;18.10;100.00;96031.66;6064501;23;20010;-68
2023/09/17 07:06:21;;;;;;;21.15;17.63;;;20.00;77.80;;;18.24;100.00;96030.31;6063595;23;20496;-67
2023/09/17 07:08:47;;;;;;;11.80;10.52;;;20.20;77.20;;;18.36;100.00;96025.75;6065522;23;20022;-67
2023/09/17 07:11:13;;;;;;;7.55;6.75;;;20.30;76.50;;;18.50;100.00;96012.13;6088316;23;20145;-67
2023/09/17 07:13:40;;;;;;;7.53;6.47;;;20.50;76.10;;;18.62;100.00;96019.03;6089776;23;20010;-69
2023/09/17 07:16:06;;;;;;;8.30;6.28;;;20.60;75.70;;;18.77;100.00;96025.66;6090510;23;20017;-67
2023/09/17 07:18:32;;;;;;;23.05;20.30;;;20.80;74.70;;;18.89;100.00;96016.53;6063537;23;20022;-67
2023/09/17 07:20:58;;;;;;;12.95;10.25;;;21.10;73.90;;;19.09;100.00;96025.91;6064787;23;20026;-67
2023/09/17 07:23:25;;;;;;;7.40;6.60;;;21.30;73.60;;;19.24;100.00;96031.47;6090619;23;20404;-66
2023/09/17 07:25:51;;;;;;;6.35;5.75;;;21.60;72.50;;;19.41;100.00;96029.56;6094387;23;20022;-67
2023/09/17 07:28:18;;;;;;;5.97;5.38;;;21.80;71.70;;;19.57;100.00;96025.28;6066710;23;20010;-68
2023/09/17 07:30:44;;;;;;;7.90;5.40;;;22.00;71.00;;;19.75;100.00;96026.84;6064181;23;20013;-68
2023/09/17 07:33:10;;;;;;;5.63;5.03;;;22.30;70.20;;;19.91;100.00;96033.94;6039947;23;20046;-68
2023/09/17 07:35:38;;;;;;;6.57;4.88;;;22.70;68.70;;;20.11;100.00;96028.03;6040233;23;20412;-68
2023/09/17 07:38:04;;;;;;;9.15;7.70;;;23.00;67.40;;;20.33;100.00;96031.47;6088335;23;20018;-70
2023/09/17 07:40:30;;;;;;;7.53;6.45;;;23.60;65.60;;;20.61;100.00;96041.16;6064216;23;20081;-68
2023/09/17 07:42:56;;;;;;;6.05;4.70;;;23.90;65.30;;;20.84;100.00;96036.53;6088738;23;20448;-68
2023/09/17 07:45:21;;;;;;;5.22;4.38;;;24.10;63.60;;;21.03;100.00;96041.22;6089268;23;20555;-67
2023/09/17 07:47:47;;;;;;;8.07;7.03;;;24.30;63.20;;;21.30;100.00;96049.22;6088815;23;20448;-68
2023/09/17 07:50:13;;;;;;;4.88;4.38;;;25.60;60.50;;;21.65;100.00;96043.25;6040660;23;20041;-70
2023/09/17 07:52:40;;;;;;;4.97;4.45;;;26.50;57.60;;;22.08;100.00;96045.88;6041417;23;20138;-68
2023/09/17 07:55:06;;;;;;;4.97;4.47;;;27.30;55.20;;;22.44;100.00;96034.19;6041744;23;20437;-69
2023/09/17 07:57:32;;;;;;;8.40;7.45;;;27.10;54.90;;;22.77;99.14;96038.25;6064669;23;20029;-67
2023/09/17 07:59:58;;;;;;;15.88;14.05;;;27.80;52.90;;;23.15;97.05;96036.13;6066111;23;20022;-69
2023/09/17 08:02:23;;;;;;;5.50;5.00;;;28.60;52.20;;;23.56;94.80;96031.53;6088749;23;20500;-68
2023/09/17 08:04:49;;;;;;;4.93;4.28;;;28.90;50.00;;;23.93;91.99;96033.00;6042340;23;20075;-69
2023/09/17 08:07:16;;;;;;;5.07;4.30;;;29.20;49.60;;;24.29;89.30;96042.56;6064385;23;20014;-72
2023/09/17 08:09:42;;;;;;;4.50;4.10;;;29.50;48.70;;;24.60;87.83;96037.00;6089439;23;20110;-70
2023/09/17 08:12:09;;;;;;;4.22;3.67;;;29.80;48.00;;;24.85;84.52;96031.41;6087765;23;20460;-71
2023/09/17 08:14:36;;;;;;;4.55;4.00;;;29.60;46.90;;;25.03;81.79;96029.97;6044795;23;20014;-69
2023/09/17 08:17:03;;;;;;;5.80;4.10;;;29.10;48.10;;;25.08;80.18;96032.63;6046093;23;20657;-74
2023/09/17 08:19:30;;;;;;;6.55;4.30;;;28.50;49.50;;;25.06;78.90;96028.59;6073009;23;20089;-68
2023/09/17 08:21:57;;;;;;;13.52;10.38;;;28.10;50.70;;;25.08;78.10;96031.81;6076465;23;20006;-74
2023/09/17 08:24:25;;;;;;;9.10;7.47;;;28.00;51.40;;;25.08;77.84;96031.81;6074825;23;20018;-73
2023/09/17 08:26:52;;;;;;;5.35;4.25;;;27.90;51.90;;;25.03;76.85;96036.16;6072128;23;20021;-67
2023/09/17 08:29:21;;;;;;;4.35;3.88;;;27.60;52.10;;;25.00;76.83;96044.00;6098523;23;20792;-76
2023/09/17 08:31:47;;;;;;;4.50;3.85;;;27.50;52.60;;;25.00;77.39;96044.78;6049638;23;20027;-69
2023/09/17 08:34:15;;;;;;;5.60;4.28;;;27.60;53.80;;;24.95;77.56;96052.88;6076803;23;20014;-71
2023/09/17 08:36:43;;;;;;;5.75;3.90;;;27.20;54.50;;;24.90;78.05;96046.75;6052859;23;20452;-66
2023/09/17 08:39:11;;;;;;;6.25;4.40;;;27.30;54.50;;;24.89;77.93;96055.88;6053779;23;20104;-67
2023/09/17 08:41:40;;;;;;;4.95;4.45;;;27.30;54.80;;;24.82;78.34;96055.41;6077962;23;20040;-75
2023/09/17 08:44:06;;;;;;;8.55;4.70;;;27.00;55.50;;;24.75;77.62;96053.03;6078082;23;20041;-76
2023/09/17 08:46:32;;;;;;;12.60;9.35;;;27.00;54.50;;;24.73;77.35;96057.88;6051062;23;20410;-73
2023/09/17 08:49:01;;;;;;;7.22;5.05;;;27.20;54.60;;;24.79;77.22;96056.75;6101494;23;20006;-78
2023/09/17 08:51:30;;;;;;;4.90;3.63;;;27.40;54.30;;;24.80;76.46;96053.00;6106167;23;20006;-75
2023/09/17 08:54:17;;;;;;;7.35;3.83;;;27.50;53.10;;;24.91;72.64;96033.00;6104866;23;20485;-69
2023/09/17 08:56:44;;;;;;;3.60;3.20;;;27.70;52.00;;;25.02;74.04;96045.31;6101767;23;20026;-67
2023/09/17 08:59:13;;;;;;;8.20;6.50;;;27.90;50.90;;;25.16;73.40;96042.00;6045385;23;20018;-75
2023/09/17 09:01:40;;;;;;;8.88;6.85;;;28.10;50.40;;;25.32;72.81;96044.22;6069580;23;20017;-67
2023/09/17 09:04:06;;;;;;;4.70;4.18;;;28.40;50.00;;;25.48;72.02;96042.19;6094264;23;20007;-74
2023/09/17 09:06:32;;;;;;;6.68;3.33;;;28.60;49.90;;;25.56;71.92;96044.28;6042674;23;20285;-70
2023/09/17 09:08:59;;;;;;;6.35;4.60;;;28.50;50.60;;;25.70;71.42;96043.63;6043238;23;20101;-70
2023/09/17 09:11:24;;;;;;;12.73;10.32;;;28.60;49.70;;;25.79;71.67;96042.69;6067081;23;20026;-73
2023/09/17 09:13:53;;;;;;;4.82;4.25;;;28.70;50.60;;;25.93;71.14;96042.81;6041808;23;20073;-68
2023/09/17 09:16:20;;;;;;;4.18;3.45;;;28.90;50.20;;;26.24;70.88;96041.34;6093716;23;20022;-71
2023/09/17 09:18:47;;;;;;;12.98;11.50;;;29.60;48.70;;;26.46;68.31;96029.22;6073082;23;20013;-72
2023/09/17 09:21:14;;;;;;;13.10;10.63;;;29.50;47.30;;;26.68;67.14;96031.31;6048858;23;20033;-72
2023/09/17 09:23:40;;;;;;;5.78;5.18;;;29.70;46.50;;;27.01;66.70;96024.91;6093947;23;20659;-71
2023/09/17 09:26:06;;;;;;;7.50;6.80;;;30.30;46.60;;;27.46;64.70;96017.91;6088544;23;20065;-72
2023/09/17 09:28:32;;;;;;;4.43;3.30;;;30.90;44.70;;;27.97;63.19;96013.44;6069437;23;20010;-70
2023/09/17 09:30:58;;;;;;;3.50;2.30;;;31.60;43.10;;;28.39;60.18;96001.50;6046945;23;20010;-67
2023/09/17 09:33:24;;;;;;;4.03;2.67;;;31.90;40.40;;;28.77;58.12;95993.06;6045195;23;20034;-71
2023/09/17 09:35:50;;;;;;;3.65;2.67;;;32.20;39.80;;;29.07;57.16;95992.31;6068272;23;20050;-70
2023/09/17 09:38:18;;;;;;;5.07;2.70;;;32.50;40.30;;;29.47;56.30;95984.28;6044592;23;20071;-73
2023/09/17 09:40:44;;;;;;;3.97;2.83;;;33.10;39.10;;;29.90;55.26;95980.94;6020468;23;20045;-72
2023/09/17 09:43:37;;;;;;;5.45;3.00;;;33.70;38.20;;;30.38;49.81;95946.41;6021769;23;20360;-72
2023/09/17 09:46:04;;;;;;;4.95;4.03;;;34.30;36.30;;;30.78;52.05;95974.19;6082890;23;21753;-73
2023/09/17 09:48:30;;;;;;;7.30;3.00;;;35.10;35.70;;;31.23;51.28;95964.84;6041255;23;20041;-75
2023/09/17 09:50:57;;;;;;;3.70;2.88;;;35.50;34.90;;;31.27;51.01;95966.63;6088976;23;20033;-75
2023/09/17 09:53:24;;;;;;;4.78;2.80;;;34.90;35.90;;;31.22;51.34;95968.69;6018047;23;20408;-73
2023/09/17 09:55:50;;;;;;;4.03;2.92;;;34.60;37.00;;;31.06;51.70;95971.91;6088982;23;20022;-72
2023/09/17 09:58:15;;;;;;;7.22;5.35;;;34.10;37.10;;;31.02;51.36;95979.13;6066405;23;20105;-72
2023/09/17 10:00:44;;;;;;;4.88;4.18;;;34.40;37.70;;;31.26;50.38;95967.75;6042444;23;20014;-72
2023/09/17 10:03:17;;;;;;;4.93;3.53;;;35.20;35.70;;;31.64;49.21;95951.41;6088271;23;20049;-72
2023/09/17 10:05:44;;;;;;;3.05;2.75;;;35.80;35.30;;;31.93;50.04;95963.50;6088505;23;20085;-73